sensor_id;sensor_type;location;lat;lon;timestamp;P1;durP1;ratioP1;P2;durP2;ratioP2
40154;SDS011;25875;48.202;16.334;2023-04-24T00:02:20;4.82;;;4.32;;
40154;SDS011;25875;48.202;16.334;2023-04-24T00:04:48;4.35;;;3.85;;
40154;SDS011;25875;48.202;16.334;2023-04-24T00:07:15;4.80;;;4.30;;
40154;SDS011;25875;48.202;16.334;2023-04-24T00:09:42;5.20;;;4.47;;
40154;SDS011;25875;48.202;16.334;2023-04-24T00:12:09;6.00;;;4.65;;
40154;SDS011;25875;48.202;16.334;2023-04-24T00:14:36;5.97;;;4.65;;
40154;SDS011;25875;48.202;16.334;2023-04-24T00:17:03;6.13;;;4.30;;
40154;SDS011;25875;48.202;16.334;2023-04-24T00:19:29;8.85;;;4.55;;
40154;SDS011;25875;48.202;16.334;2023-04-24T00:21:58;5.97;;;3.88;;
40154;SDS011;25875;48.202;16.334;2023-04-24T00:24:25;5.28;;;4.60;;
40154;SDS011;25875;48.202;16.334;2023-04-24T00:26:51;4.78;;;3.80;;
40154;SDS011;25875;48.202;16.334;2023-04-24T00:29:18;5.22;;;4.38;;
40154;SDS011;25875;48.202;16.334;2023-04-24T00:31:44;6.60;;;4.90;;
40154;SDS011;25875;48.202;16.334;2023-04-24T00:34:11;7.95;;;4.25;;
40154;SDS011;25875;48.202;16.334;2023-04-24T00:36:38;5.13;;;4.15;;
40154;SDS011;25875;48.202;16.334;2023-04-24T00:39:06;5.18;;;4.05;;
40154;SDS011;25875;48.202;16.334;2023-04-24T00:41:34;6.90;;;5.07;;
40154;SDS011;25875;48.202;16.334;2023-04-24T00:44:01;4.90;;;4.30;;
40154;SDS011;25875;48.202;16.334;2023-04-24T00:46:28;7.05;;;4.30;;
40154;SDS011;25875;48.202;16.334;2023-04-24T00:48:55;5.45;;;4.40;;
40154;SDS011;25875;48.202;16.334;2023-04-24T00:51:22;4.93;;;4.10;;
40154;SDS011;25875;48.202;16.334;2023-04-24T00:53:49;6.82;;;4.13;;
40154;SDS011;25875;48.202;16.334;2023-04-24T00:56:18;5.38;;;4.05;;
40154;SDS011;25875;48.202;16.334;2023-04-24T00:58:46;5.70;;;4.30;;
40154;SDS011;25875;48.202;16.334;2023-04-24T01:01:13;5.93;;;4.00;;
40154;SDS011;25875;48.202;16.334;2023-04-24T01:03:40;4.50;;;4.05;;
40154;SDS011;25875;48.202;16.334;2023-04-24T01:06:07;5.30;;;4.40;;
40154;SDS011;25875;48.202;16.334;2023-04-24T01:08:35;6.40;;;4.85;;
40154;SDS011;25875;48.202;16.334;2023-04-24T01:11:03;6.55;;;4.57;;
40154;SDS011;25875;48.202;16.334;2023-04-24T01:13:32;6.80;;;4.90;;
40154;SDS011;25875;48.202;16.334;2023-04-24T01:15:59;7.53;;;5.00;;
40154;SDS011;25875;48.202;16.334;2023-04-24T01:18:27;7.07;;;4.68;;
40154;SDS011;25875;48.202;16.334;2023-04-24T01:20:54;4.97;;;4.15;;
40154;SDS011;25875;48.202;16.334;2023-04-24T01:23:25;5.55;;;4.70;;
40154;SDS011;25875;48.202;16.334;2023-04-24T01:25:52;5.43;;;4.78;;
40154;SDS011;25875;48.202;16.334;2023-04-24T01:28:19;5.07;;;4.57;;
40154;SDS011;25875;48.202;16.334;2023-04-24T01:30:46;6.00;;;4.78;;
40154;SDS011;25875;48.202;16.334;2023-04-24T01:33:13;5.40;;;4.78;;
40154;SDS011;25875;48.202;16.334;2023-04-24T01:35:40;5.85;;;4.88;;
40154;SDS011;25875;48.202;16.334;2023-04-24T01:38:07;5.47;;;4.55;;
40154;SDS011;25875;48.202;16.334;2023-04-24T01:40:35;5.05;;;4.53;;
40154;SDS011;25875;48.202;16.334;2023-04-24T01:43:12;5.63;;;5.13;;
40154;SDS011;25875;48.202;16.334;2023-04-24T01:45:39;4.78;;;4.18;;
40154;SDS011;25875;48.202;16.334;2023-04-24T01:48:06;5.70;;;5.10;;
40154;SDS011;25875;48.202;16.334;2023-04-24T01:50:33;6.65;;;4.63;;
40154;SDS011;25875;48.202;16.334;2023-04-24T01:53:00;5.43;;;4.68;;
40154;SDS011;25875;48.202;16.334;2023-04-24T01:55:27;5.60;;;4.65;;
40154;SDS011;25875;48.202;16.334;2023-04-24T01:57:54;6.90;;;4.95;;
40154;SDS011;25875;48.202;16.334;2023-04-24T02:00:23;5.53;;;4.35;;
40154;SDS011;25875;48.202;16.334;2023-04-24T02:02:50;6.13;;;4.25;;
40154;SDS011;25875;48.202;16.334;2023-04-24T02:05:17;5.65;;;5.00;;
40154;SDS011;25875;48.202;16.334;2023-04-24T02:07:44;5.22;;;4.10;;
40154;SDS011;25875;48.202;16.334;2023-04-24T02:10:10;4.57;;;3.97;;
40154;SDS011;25875;48.202;16.334;2023-04-24T02:12:37;6.10;;;4.60;;
40154;SDS011;25875;48.202;16.334;2023-04-24T02:15:04;4.68;;;3.85;;
40154;SDS011;25875;48.202;16.334;2023-04-24T02:17:33;6.18;;;4.45;;
40154;SDS011;25875;48.202;16.334;2023-04-24T02:20:00;5.43;;;3.97;;
40154;SDS011;25875;48.202;16.334;2023-04-24T02:22:29;4.28;;;3.20;;
40154;SDS011;25875;48.202;16.334;2023-04-24T02:24:56;3.92;;;3.40;;
40154;SDS011;25875;48.202;16.334;2023-04-24T02:27:23;5.00;;;4.05;;
40154;SDS011;25875;48.202;16.334;2023-04-24T02:29:49;5.47;;;3.67;;
40154;SDS011;25875;48.202;16.334;2023-04-24T02:32:16;4.45;;;3.20;;
40154;SDS011;25875;48.202;16.334;2023-04-24T02:34:44;3.95;;;3.25;;
40154;SDS011;25875;48.202;16.334;2023-04-24T02:37:11;4.60;;;3.38;;
40154;SDS011;25875;48.202;16.334;2023-04-24T02:39:38;4.22;;;3.53;;
40154;SDS011;25875;48.202;16.334;2023-04-24T02:42:05;4.68;;;3.20;;
40154;SDS011;25875;48.202;16.334;2023-04-24T02:44:33;4.57;;;3.55;;
40154;SDS011;25875;48.202;16.334;2023-04-24T02:47:00;3.85;;;3.40;;
40154;SDS011;25875;48.202;16.334;2023-04-24T02:49:26;4.78;;;3.35;;
40154;SDS011;25875;48.202;16.334;2023-04-24T02:51:55;5.00;;;3.40;;
40154;SDS011;25875;48.202;16.334;2023-04-24T02:54:21;7.38;;;3.92;;
40154;SDS011;25875;48.202;16.334;2023-04-24T02:56:48;4.32;;;3.22;;
40154;SDS011;25875;48.202;16.334;2023-04-24T02:59:15;4.50;;;3.05;;
40154;SDS011;25875;48.202;16.334;2023-04-24T03:01:42;5.43;;;3.40;;
40154;SDS011;25875;48.202;16.334;2023-04-24T03:04:09;3.85;;;3.05;;
40154;SDS011;25875;48.202;16.334;2023-04-24T03:06:36;4.80;;;2.88;;
40154;SDS011;25875;48.202;16.334;2023-04-24T03:09:05;3.85;;;3.08;;
40154;SDS011;25875;48.202;16.334;2023-04-24T03:11:32;3.30;;;2.60;;
40154;SDS011;25875;48.202;16.334;2023-04-24T03:13:58;4.25;;;2.70;;
40154;SDS011;25875;48.202;16.334;2023-04-24T03:16:25;3.42;;;2.78;;
40154;SDS011;25875;48.202;16.334;2023-04-24T03:18:52;4.13;;;2.90;;
40154;SDS011;25875;48.202;16.334;2023-04-24T03:21:19;4.15;;;3.35;;
40154;SDS011;25875;48.202;16.334;2023-04-24T03:23:46;4.85;;;3.58;;
40154;SDS011;25875;48.202;16.334;2023-04-24T03:26:14;4.35;;;3.63;;
40154;SDS011;25875;48.202;16.334;2023-04-24T03:28:40;3.50;;;2.70;;
40154;SDS011;25875;48.202;16.334;2023-04-24T03:31:07;6.30;;;3.45;;
40154;SDS011;25875;48.202;16.334;2023-04-24T03:33:34;3.90;;;3.00;;
40154;SDS011;25875;48.202;16.334;2023-04-24T03:36:01;3.90;;;2.88;;
40154;SDS011;25875;48.202;16.334;2023-04-24T03:38:27;4.05;;;3.00;;
40154;SDS011;25875;48.202;16.334;2023-04-24T03:40:54;4.32;;;2.70;;
40154;SDS011;25875;48.202;16.334;2023-04-24T03:43:22;3.17;;;2.67;;
40154;SDS011;25875;48.202;16.334;2023-04-24T03:45:49;3.70;;;3.15;;
40154;SDS011;25875;48.202;16.334;2023-04-24T03:48:16;4.03;;;3.08;;
40154;SDS011;25875;48.202;16.334;2023-04-24T03:50:43;3.33;;;2.78;;
40154;SDS011;25875;48.202;16.334;2023-04-24T03:53:10;3.90;;;3.20;;
40154;SDS011;25875;48.202;16.334;2023-04-24T03:55:37;3.13;;;2.65;;
40154;SDS011;25875;48.202;16.334;2023-04-24T03:58:03;3.97;;;3.10;;
40154;SDS011;25875;48.202;16.334;2023-04-24T04:00:32;3.83;;;2.90;;
40154;SDS011;25875;48.202;16.334;2023-04-24T04:02:59;4.13;;;2.70;;
40154;SDS011;25875;48.202;16.334;2023-04-24T04:05:26;3.35;;;2.85;;
40154;SDS011;25875;48.202;16.334;2023-04-24T04:07:52;5.18;;;3.35;;
40154;SDS011;25875;48.202;16.334;2023-04-24T04:10:20;3.58;;;3.15;;
40154;SDS011;25875;48.202;16.334;2023-04-24T04:12:46;5.25;;;3.08;;
40154;SDS011;25875;48.202;16.334;2023-04-24T04:15:13;4.97;;;2.85;;
40154;SDS011;25875;48.202;16.334;2023-04-24T04:17:41;4.30;;;3.05;;
40154;SDS011;25875;48.202;16.334;2023-04-24T04:20:08;3.35;;;2.65;;
40154;SDS011;25875;48.202;16.334;2023-04-24T04:22:35;4.38;;;3.10;;
40154;SDS011;25875;48.202;16.334;2023-04-24T04:25:02;4.18;;;2.83;;
40154;SDS011;25875;48.202;16.334;2023-04-24T04:27:30;3.90;;;2.70;;
40154;SDS011;25875;48.202;16.334;2023-04-24T04:29:57;4.07;;;2.85;;
40154;SDS011;25875;48.202;16.334;2023-04-24T04:32:24;3.38;;;2.80;;
40154;SDS011;25875;48.202;16.334;2023-04-24T04:34:53;3.28;;;2.53;;
40154;SDS011;25875;48.202;16.334;2023-04-24T04:37:19;4.10;;;2.80;;
40154;SDS011;25875;48.202;16.334;2023-04-24T04:39:47;3.70;;;2.75;;
40154;SDS011;25875;48.202;16.334;2023-04-24T04:42:13;3.88;;;2.30;;
40154;SDS011;25875;48.202;16.334;2023-04-24T04:44:40;3.63;;;2.95;;
40154;SDS011;25875;48.202;16.334;2023-04-24T04:47:07;3.40;;;2.38;;
40154;SDS011;25875;48.202;16.334;2023-04-24T04:49:36;4.20;;;3.08;;
40154;SDS011;25875;48.202;16.334;2023-04-24T04:52:05;3.35;;;2.80;;
40154;SDS011;25875;48.202;16.334;2023-04-24T04:54:31;3.47;;;2.78;;
40154;SDS011;25875;48.202;16.334;2023-04-24T04:56:59;4.55;;;2.35;;
40154;SDS011;25875;48.202;16.334;2023-04-24T04:59:25;3.75;;;2.50;;
40154;SDS011;25875;48.202;16.334;2023-04-24T05:01:52;3.20;;;2.70;;
40154;SDS011;25875;48.202;16.334;2023-04-24T05:04:19;3.83;;;2.47;;
40154;SDS011;25875;48.202;16.334;2023-04-24T05:06:46;3.33;;;2.65;;
40154;SDS011;25875;48.202;16.334;2023-04-24T05:09:15;3.53;;;2.50;;
40154;SDS011;25875;48.202;16.334;2023-04-24T05:11:41;3.22;;;2.05;;
40154;SDS011;25875;48.202;16.334;2023-04-24T05:14:08;4.07;;;2.95;;
40154;SDS011;25875;48.202;16.334;2023-04-24T05:16:35;3.67;;;2.47;;
40154;SDS011;25875;48.202;16.334;2023-04-24T05:19:03;5.32;;;3.03;;
40154;SDS011;25875;48.202;16.334;2023-04-24T05:21:30;3.88;;;2.67;;
40154;SDS011;25875;48.202;16.334;2023-04-24T05:23:57;4.60;;;2.50;;
40154;SDS011;25875;48.202;16.334;2023-04-24T05:26:25;4.18;;;2.90;;
40154;SDS011;25875;48.202;16.334;2023-04-24T05:28:52;4.40;;;2.70;;
40154;SDS011;25875;48.202;16.334;2023-04-24T05:31:18;4.68;;;2.67;;
40154;SDS011;25875;48.202;16.334;2023-04-24T05:33:45;3.45;;;2.70;;
40154;SDS011;25875;48.202;16.334;2023-04-24T05:36:12;4.82;;;3.05;;
40154;SDS011;25875;48.202;16.334;2023-04-24T05:38:38;4.80;;;2.65;;
40154;SDS011;25875;48.202;16.334;2023-04-24T05:41:05;3.55;;;2.88;;
40154;SDS011;25875;48.202;16.334;2023-04-24T05:43:33;3.42;;;2.47;;
40154;SDS011;25875;48.202;16.334;2023-04-24T05:46:01;3.28;;;2.53;;
40154;SDS011;25875;48.202;16.334;2023-04-24T05:48:28;3.75;;;2.78;;
40154;SDS011;25875;48.202;16.334;2023-04-24T05:50:55;3.70;;;2.90;;
40154;SDS011;25875;48.202;16.334;2023-04-24T05:53:22;4.47;;;2.55;;
40154;SDS011;25875;48.202;16.334;2023-04-24T05:55:49;4.25;;;2.85;;
40154;SDS011;25875;48.202;16.334;2023-04-24T05:58:16;3.58;;;3.05;;
40154;SDS011;25875;48.202;16.334;2023-04-24T06:00:44;4.60;;;2.72;;
40154;SDS011;25875;48.202;16.334;2023-04-24T06:03:11;3.42;;;2.50;;
40154;SDS011;25875;48.202;16.334;2023-04-24T06:05:39;4.07;;;2.45;;
40154;SDS011;25875;48.202;16.334;2023-04-24T06:08:05;4.72;;;2.22;;
40154;SDS011;25875;48.202;16.334;2023-04-24T06:10:32;3.78;;;2.13;;
40154;SDS011;25875;48.202;16.334;2023-04-24T06:12:59;3.35;;;2.58;;
40154;SDS011;25875;48.202;16.334;2023-04-24T06:15:27;2.92;;;2.28;;
40154;SDS011;25875;48.202;16.334;2023-04-24T06:17:56;3.25;;;2.67;;
40154;SDS011;25875;48.202;16.334;2023-04-24T06:20:24;3.67;;;2.17;;
40154;SDS011;25875;48.202;16.334;2023-04-24T06:22:51;4.82;;;3.17;;
40154;SDS011;25875;48.202;16.334;2023-04-24T06:25:18;3.60;;;2.75;;
40154;SDS011;25875;48.202;16.334;2023-04-24T06:27:45;3.92;;;2.33;;
40154;SDS011;25875;48.202;16.334;2023-04-24T06:30:12;3.88;;;2.63;;
40154;SDS011;25875;48.202;16.334;2023-04-24T06:32:39;3.58;;;2.70;;
40154;SDS011;25875;48.202;16.334;2023-04-24T06:35:08;3.38;;;2.38;;
40154;SDS011;25875;48.202;16.334;2023-04-24T06:37:36;5.30;;;2.72;;
40154;SDS011;25875;48.202;16.334;2023-04-24T06:40:03;3.40;;;2.50;;
40154;SDS011;25875;48.202;16.334;2023-04-24T06:42:31;3.20;;;2.33;;
40154;SDS011;25875;48.202;16.334;2023-04-24T06:44:57;4.00;;;2.90;;
40154;SDS011;25875;48.202;16.334;2023-04-24T06:47:26;3.67;;;2.47;;
40154;SDS011;25875;48.202;16.334;2023-04-24T06:49:52;2.85;;;2.25;;
40154;SDS011;25875;48.202;16.334;2023-04-24T06:52:21;4.40;;;2.60;;
40154;SDS011;25875;48.202;16.334;2023-04-24T06:54:48;3.58;;;2.58;;
40154;SDS011;25875;48.202;16.334;2023-04-24T06:57:15;2.60;;;2.30;;
40154;SDS011;25875;48.202;16.334;2023-04-24T06:59:42;3.58;;;2.35;;
40154;SDS011;25875;48.202;16.334;2023-04-24T07:02:09;3.53;;;2.40;;
40154;SDS011;25875;48.202;16.334;2023-04-24T07:04:35;3.22;;;2.47;;
40154;SDS011;25875;48.202;16.334;2023-04-24T07:07:02;2.55;;;1.88;;
40154;SDS011;25875;48.202;16.334;2023-04-24T07:09:31;3.20;;;2.20;;
40154;SDS011;25875;48.202;16.334;2023-04-24T07:11:57;3.47;;;2.10;;
40154;SDS011;25875;48.202;16.334;2023-04-24T07:14:24;2.70;;;1.83;;
40154;SDS011;25875;48.202;16.334;2023-04-24T07:16:51;5.75;;;2.10;;
40154;SDS011;25875;48.202;16.334;2023-04-24T07:19:18;2.80;;;1.90;;
40154;SDS011;25875;48.202;16.334;2023-04-24T07:21:44;3.15;;;2.03;;
40154;SDS011;25875;48.202;16.334;2023-04-24T07:24:11;2.92;;;2.10;;
40154;SDS011;25875;48.202;16.334;2023-04-24T07:26:39;3.35;;;2.05;;
40154;SDS011;25875;48.202;16.334;2023-04-24T07:29:06;3.30;;;2.10;;
40154;SDS011;25875;48.202;16.334;2023-04-24T07:31:33;2.60;;;1.80;;
40154;SDS011;25875;48.202;16.334;2023-04-24T07:34:00;2.67;;;2.00;;
40154;SDS011;25875;48.202;16.334;2023-04-24T07:36:27;3.35;;;1.90;;
40154;SDS011;25875;48.202;16.334;2023-04-24T07:38:54;3.10;;;2.00;;
40154;SDS011;25875;48.202;16.334;2023-04-24T07:41:22;3.17;;;2.08;;
40154;SDS011;25875;48.202;16.334;2023-04-24T07:43:51;3.28;;;2.03;;
40154;SDS011;25875;48.202;16.334;2023-04-24T07:46:18;4.32;;;2.70;;
40154;SDS011;25875;48.202;16.334;2023-04-24T07:48:46;3.60;;;2.15;;
40154;SDS011;25875;48.202;16.334;2023-04-24T07:51:14;3.85;;;2.35;;
40154;SDS011;25875;48.202;16.334;2023-04-24T07:53:41;2.80;;;1.85;;
40154;SDS011;25875;48.202;16.334;2023-04-24T07:56:08;4.30;;;2.08;;
40154;SDS011;25875;48.202;16.334;2023-04-24T07:58:34;3.08;;;1.90;;
40154;SDS011;25875;48.202;16.334;2023-04-24T08:01:03;2.60;;;1.77;;
40154;SDS011;25875;48.202;16.334;2023-04-24T08:03:29;3.08;;;2.20;;
40154;SDS011;25875;48.202;16.334;2023-04-24T08:05:56;2.65;;;2.03;;
40154;SDS011;25875;48.202;16.334;2023-04-24T08:08:23;3.53;;;2.00;;
40154;SDS011;25875;48.202;16.334;2023-04-24T08:10:50;3.38;;;2.10;;
40154;SDS011;25875;48.202;16.334;2023-04-24T08:13:16;2.92;;;2.08;;
40154;SDS011;25875;48.202;16.334;2023-04-24T08:15:43;3.70;;;2.30;;
40154;SDS011;25875;48.202;16.334;2023-04-24T08:18:12;2.92;;;2.22;;
40154;SDS011;25875;48.202;16.334;2023-04-24T08:20:40;2.80;;;1.90;;
40154;SDS011;25875;48.202;16.334;2023-04-24T08:23:10;4.05;;;2.05;;
40154;SDS011;25875;48.202;16.334;2023-04-24T08:25:37;2.80;;;1.90;;
40154;SDS011;25875;48.202;16.334;2023-04-24T08:28:05;3.42;;;2.13;;
40154;SDS011;25875;48.202;16.334;2023-04-24T08:30:33;2.45;;;1.70;;
40154;SDS011;25875;48.202;16.334;2023-04-24T08:32:59;2.42;;;1.70;;
40154;SDS011;25875;48.202;16.334;2023-04-24T08:35:28;2.55;;;1.85;;
40154;SDS011;25875;48.202;16.334;2023-04-24T08:37:55;2.83;;;1.80;;
40154;SDS011;25875;48.202;16.334;2023-04-24T08:40:27;2.25;;;1.50;;
40154;SDS011;25875;48.202;16.334;2023-04-24T08:42:55;4.60;;;2.25;;
40154;SDS011;25875;48.202;16.334;2023-04-24T08:45:22;2.83;;;1.40;;
40154;SDS011;25875;48.202;16.334;2023-04-24T08:47:51;2.90;;;1.50;;
40154;SDS011;25875;48.202;16.334;2023-04-24T08:50:20;2.00;;;1.50;;
40154;SDS011;25875;48.202;16.334;2023-04-24T08:52:48;2.13;;;1.38;;
40154;SDS011;25875;48.202;16.334;2023-04-24T08:55:18;2.75;;;1.60;;
40154;SDS011;25875;48.202;16.334;2023-04-24T08:57:46;2.15;;;1.40;;
40154;SDS011;25875;48.202;16.334;2023-04-24T09:00:18;1.85;;;1.23;;
40154;SDS011;25875;48.202;16.334;2023-04-24T09:02:46;4.57;;;1.60;;
40154;SDS011;25875;48.202;16.334;2023-04-24T09:05:16;2.13;;;1.30;;
40154;SDS011;25875;48.202;16.334;2023-04-24T09:07:43;1.90;;;1.25;;
40154;SDS011;25875;48.202;16.334;2023-04-24T09:10:13;2.60;;;1.42;;
40154;SDS011;25875;48.202;16.334;2023-04-24T09:12:41;2.70;;;1.70;;
40154;SDS011;25875;48.202;16.334;2023-04-24T09:15:10;2.28;;;1.40;;
40154;SDS011;25875;48.202;16.334;2023-04-24T09:17:37;2.30;;;1.48;;
40154;SDS011;25875;48.202;16.334;2023-04-24T09:20:05;3.30;;;1.35;;
40154;SDS011;25875;48.202;16.334;2023-04-24T09:22:32;1.45;;;1.10;;
40154;SDS011;25875;48.202;16.334;2023-04-24T09:24:59;2.22;;;1.48;;
40154;SDS011;25875;48.202;16.334;2023-04-24T09:27:30;1.88;;;1.20;;
40154;SDS011;25875;48.202;16.334;2023-04-24T09:29:58;2.53;;;1.42;;
40154;SDS011;25875;48.202;16.334;2023-04-24T09:32:25;2.30;;;1.40;;
40154;SDS011;25875;48.202;16.334;2023-04-24T09:35:08;2.05;;;1.38;;
40154;SDS011;25875;48.202;16.334;2023-04-24T09:37:37;1.88;;;1.30;;
40154;SDS011;25875;48.202;16.334;2023-04-24T09:40:10;3.30;;;1.52;;
40154;SDS011;25875;48.202;16.334;2023-04-24T09:42:40;3.15;;;1.77;;
40154;SDS011;25875;48.202;16.334;2023-04-24T09:45:09;2.47;;;1.50;;
40154;SDS011;25875;48.202;16.334;2023-04-24T09:47:36;2.10;;;1.20;;
40154;SDS011;25875;48.202;16.334;2023-04-24T09:50:10;2.47;;;1.40;;
40154;SDS011;25875;48.202;16.334;2023-04-24T09:52:42;2.97;;;1.60;;
40154;SDS011;25875;48.202;16.334;2023-04-24T09:55:11;3.17;;;1.50;;
40154;SDS011;25875;48.202;16.334;2023-04-24T09:58:02;2.38;;;1.63;;
40154;SDS011;25875;48.202;16.334;2023-04-24T10:00:30;1.80;;;1.25;;
40154;SDS011;25875;48.202;16.334;2023-04-24T10:02:59;2.17;;;1.27;;
40154;SDS011;25875;48.202;16.334;2023-04-24T10:05:28;2.47;;;1.55;;
40154;SDS011;25875;48.202;16.334;2023-04-24T10:07:56;2.03;;;1.38;;
40154;SDS011;25875;48.202;16.334;2023-04-24T10:10:24;2.55;;;1.30;;
40154;SDS011;25875;48.202;16.334;2023-04-24T10:12:51;2.20;;;1.20;;
40154;SDS011;25875;48.202;16.334;2023-04-24T10:15:20;2.78;;;1.60;;
40154;SDS011;25875;48.202;16.334;2023-04-24T10:17:48;2.35;;;1.60;;
40154;SDS011;25875;48.202;16.334;2023-04-24T10:20:18;2.20;;;1.45;;
40154;SDS011;25875;48.202;16.334;2023-04-24T10:22:47;2.10;;;1.30;;
40154;SDS011;25875;48.202;16.334;2023-04-24T10:25:16;2.40;;;1.73;;
40154;SDS011;25875;48.202;16.334;2023-04-24T10:27:46;3.08;;;1.30;;
40154;SDS011;25875;48.202;16.334;2023-04-24T10:30:17;2.58;;;1.30;;
40154;SDS011;25875;48.202;16.334;2023-04-24T10:32:45;2.38;;;1.30;;
40154;SDS011;25875;48.202;16.334;2023-04-24T10:35:12;3.55;;;1.58;;
40154;SDS011;25875;48.202;16.334;2023-04-24T10:37:42;2.45;;;1.50;;
40154;SDS011;25875;48.202;16.334;2023-04-24T10:40:11;2.53;;;1.58;;
40154;SDS011;25875;48.202;16.334;2023-04-24T10:42:43;2.30;;;1.50;;
40154;SDS011;25875;48.202;16.334;2023-04-24T10:45:18;2.58;;;1.50;;
40154;SDS011;25875;48.202;16.334;2023-04-24T10:47:56;2.85;;;1.50;;
40154;SDS011;25875;48.202;16.334;2023-04-24T10:50:26;1.83;;;1.30;;
40154;SDS011;25875;48.202;16.334;2023-04-24T10:53:04;1.73;;;1.30;;
40154;SDS011;25875;48.202;16.334;2023-04-24T10:55:43;1.85;;;1.30;;
40154;SDS011;25875;48.202;16.334;2023-04-24T10:58:11;3.00;;;1.75;;
40154;SDS011;25875;48.202;16.334;2023-04-24T11:00:43;2.58;;;1.60;;
40154;SDS011;25875;48.202;16.334;2023-04-24T11:03:25;2.83;;;1.50;;
40154;SDS011;25875;48.202;16.334;2023-04-24T11:05:57;3.13;;;1.95;;
40154;SDS011;25875;48.202;16.334;2023-04-24T11:08:26;2.40;;;1.50;;
40154;SDS011;25875;48.202;16.334;2023-04-24T11:11:03;2.58;;;1.70;;
40154;SDS011;25875;48.202;16.334;2023-04-24T11:16:31;2.50;;;1.60;;
40154;SDS011;25875;48.202;16.334;2023-04-24T11:19:01;2.40;;;1.67;;
40154;SDS011;25875;48.202;16.334;2023-04-24T11:21:30;2.97;;;1.65;;
40154;SDS011;25875;48.202;16.334;2023-04-24T11:23:58;4.05;;;1.67;;
40154;SDS011;25875;48.202;16.334;2023-04-24T11:26:25;3.63;;;1.85;;
40154;SDS011;25875;48.202;16.334;2023-04-24T11:29:05;2.45;;;1.63;;
40154;SDS011;25875;48.202;16.334;2023-04-24T11:31:38;3.38;;;1.70;;
40154;SDS011;25875;48.202;16.334;2023-04-24T11:34:09;2.67;;;1.58;;
40154;SDS011;25875;48.202;16.334;2023-04-24T11:36:38;2.45;;;1.73;;
40154;SDS011;25875;48.202;16.334;2023-04-24T11:39:05;2.50;;;1.63;;
40154;SDS011;25875;48.202;16.334;2023-04-24T11:41:33;2.47;;;1.40;;
40154;SDS011;25875;48.202;16.334;2023-04-24T11:44:00;2.58;;;1.95;;
40154;SDS011;25875;48.202;16.334;2023-04-24T11:46:28;2.38;;;1.40;;
40154;SDS011;25875;48.202;16.334;2023-04-24T11:48:58;2.45;;;1.70;;
40154;SDS011;25875;48.202;16.334;2023-04-24T11:51:26;2.30;;;1.30;;
40154;SDS011;25875;48.202;16.334;2023-04-24T11:53:55;2.78;;;1.90;;
40154;SDS011;25875;48.202;16.334;2023-04-24T11:56:22;2.50;;;1.50;;
40154;SDS011;25875;48.202;16.334;2023-04-24T11:58:51;3.47;;;1.60;;
40154;SDS011;25875;48.202;16.334;2023-04-24T12:01:18;2.67;;;1.63;;
40154;SDS011;25875;48.202;16.334;2023-04-24T12:03:47;2.40;;;1.60;;
40154;SDS011;25875;48.202;16.334;2023-04-24T12:06:17;2.70;;;1.50;;
40154;SDS011;25875;48.202;16.334;2023-04-24T12:08:47;5.18;;;2.03;;
40154;SDS011;25875;48.202;16.334;2023-04-24T12:11:15;3.80;;;2.67;;
40154;SDS011;25875;48.202;16.334;2023-04-24T12:13:44;3.78;;;2.08;;
40154;SDS011;25875;48.202;16.334;2023-04-24T12:16:11;3.97;;;2.40;;
40154;SDS011;25875;48.202;16.334;2023-04-24T12:18:43;4.80;;;2.63;;
40154;SDS011;25875;48.202;16.334;2023-04-24T12:21:14;5.10;;;2.30;;
40154;SDS011;25875;48.202;16.334;2023-04-24T12:23:44;3.20;;;2.13;;
40154;SDS011;25875;48.202;16.334;2023-04-24T12:26:11;5.40;;;4.45;;
40154;SDS011;25875;48.202;16.334;2023-04-24T12:28:42;5.60;;;3.47;;
40154;SDS011;25875;48.202;16.334;2023-04-24T12:31:09;3.15;;;2.20;;
40154;SDS011;25875;48.202;16.334;2023-04-24T12:33:35;2.70;;;2.08;;
40154;SDS011;25875;48.202;16.334;2023-04-24T12:36:03;4.28;;;2.35;;
40154;SDS011;25875;48.202;16.334;2023-04-24T12:38:31;3.63;;;2.33;;
40154;SDS011;25875;48.202;16.334;2023-04-24T12:41:08;2.90;;;2.20;;
40154;SDS011;25875;48.202;16.334;2023-04-24T12:43:36;3.10;;;2.00;;
40154;SDS011;25875;48.202;16.334;2023-04-24T12:46:05;3.53;;;1.92;;
40154;SDS011;25875;48.202;16.334;2023-04-24T12:48:32;3.15;;;2.15;;
40154;SDS011;25875;48.202;16.334;2023-04-24T12:50:59;2.83;;;1.95;;
40154;SDS011;25875;48.202;16.334;2023-04-24T12:53:27;4.63;;;1.90;;
40154;SDS011;25875;48.202;16.334;2023-04-24T12:55:56;4.88;;;2.40;;
40154;SDS011;25875;48.202;16.334;2023-04-24T12:58:24;3.42;;;2.35;;
40154;SDS011;25875;48.202;16.334;2023-04-24T13:00:51;5.97;;;2.80;;
40154;SDS011;25875;48.202;16.334;2023-04-24T13:03:18;4.85;;;2.67;;
40154;SDS011;25875;48.202;16.334;2023-04-24T13:05:45;4.20;;;2.72;;
40154;SDS011;25875;48.202;16.334;2023-04-24T13:08:12;4.63;;;2.55;;
40154;SDS011;25875;48.202;16.334;2023-04-24T13:10:39;5.40;;;3.60;;
40154;SDS011;25875;48.202;16.334;2023-04-24T13:13:06;5.78;;;3.30;;
40154;SDS011;25875;48.202;16.334;2023-04-24T13:15:34;3.88;;;2.53;;
40154;SDS011;25875;48.202;16.334;2023-04-24T13:18:02;3.92;;;2.88;;
40154;SDS011;25875;48.202;16.334;2023-04-24T13:20:29;3.63;;;2.83;;
40154;SDS011;25875;48.202;16.334;2023-04-24T13:22:57;4.50;;;2.92;;
40154;SDS011;25875;48.202;16.334;2023-04-24T13:25:24;4.75;;;2.67;;
40154;SDS011;25875;48.202;16.334;2023-04-24T13:27:52;3.50;;;1.90;;
40154;SDS011;25875;48.202;16.334;2023-04-24T13:30:19;3.53;;;1.95;;
40154;SDS011;25875;48.202;16.334;2023-04-24T13:32:47;4.35;;;1.90;;
40154;SDS011;25875;48.202;16.334;2023-04-24T13:35:15;4.22;;;1.80;;
40154;SDS011;25875;48.202;16.334;2023-04-24T13:37:42;3.28;;;1.95;;
40154;SDS011;25875;48.202;16.334;2023-04-24T13:40:09;2.53;;;1.63;;
40154;SDS011;25875;48.202;16.334;2023-04-24T13:42:36;6.20;;;1.90;;
40154;SDS011;25875;48.202;16.334;2023-04-24T13:45:04;3.10;;;1.90;;
40154;SDS011;25875;48.202;16.334;2023-04-24T13:47:31;2.75;;;1.92;;
40154;SDS011;25875;48.202;16.334;2023-04-24T13:50:00;4.78;;;2.50;;
40154;SDS011;25875;48.202;16.334;2023-04-24T13:52:27;4.57;;;2.63;;
40154;SDS011;25875;48.202;16.334;2023-04-24T13:54:53;4.95;;;2.60;;
40154;SDS011;25875;48.202;16.334;2023-04-24T13:57:20;4.30;;;2.30;;
40154;SDS011;25875;48.202;16.334;2023-04-24T13:59:47;4.57;;;2.45;;
40154;SDS011;25875;48.202;16.334;2023-04-24T14:02:14;4.45;;;2.28;;
40154;SDS011;25875;48.202;16.334;2023-04-24T14:04:41;4.93;;;2.25;;
40154;SDS011;25875;48.202;16.334;2023-04-24T14:07:09;4.63;;;2.30;;
40154;SDS011;25875;48.202;16.334;2023-04-24T14:09:36;2.85;;;1.65;;
40154;SDS011;25875;48.202;16.334;2023-04-24T14:12:03;3.53;;;1.85;;
40154;SDS011;25875;48.202;16.334;2023-04-24T14:14:32;2.20;;;1.40;;
40154;SDS011;25875;48.202;16.334;2023-04-24T14:16:58;2.40;;;1.70;;
40154;SDS011;25875;48.202;16.334;2023-04-24T14:19:25;2.50;;;1.40;;
40154;SDS011;25875;48.202;16.334;2023-04-24T14:21:52;4.22;;;1.95;;
40154;SDS011;25875;48.202;16.334;2023-04-24T14:24:22;2.83;;;1.67;;
40154;SDS011;25875;48.202;16.334;2023-04-24T14:26:48;6.93;;;1.90;;
40154;SDS011;25875;48.202;16.334;2023-04-24T14:29:15;3.33;;;1.50;;
40154;SDS011;25875;48.202;16.334;2023-04-24T14:31:42;2.83;;;1.60;;
40154;SDS011;25875;48.202;16.334;2023-04-24T14:34:09;3.63;;;1.40;;
40154;SDS011;25875;48.202;16.334;2023-04-24T14:36:36;2.80;;;1.60;;
40154;SDS011;25875;48.202;16.334;2023-04-24T14:39:03;2.67;;;1.67;;
40154;SDS011;25875;48.202;16.334;2023-04-24T14:41:33;3.40;;;2.00;;